sensor_id;sensor_type;location;lat;lon;timestamp;temperature;humidity
7196;DHT22;3639;51.308;5.624;2022-08-26T00:08:36;21.30;99.90
7196;DHT22;3639;51.308;5.624;2022-08-26T00:11:02;21.30;99.90
7196;DHT22;3639;51.308;5.624;2022-08-26T00:16:00;21.30;99.90
7196;DHT22;3639;51.308;5.624;2022-08-26T00:18:26;21.30;99.90
7196;DHT22;3639;51.308;5.624;2022-08-26T00:20:52;21.30;99.90
7196;DHT22;3639;51.308;5.624;2022-08-26T00:23:18;21.30;99.90
7196;DHT22;3639;51.308;5.624;2022-08-26T00:25:45;21.30;99.90
7196;DHT22;3639;51.308;5.624;2022-08-26T00:28:11;21.30;99.90
7196;DHT22;3639;51.308;5.624;2022-08-26T00:30:37;21.30;99.90
7196;DHT22;3639;51.308;5.624;2022-08-26T00:33:03;21.30;99.90
7196;DHT22;3639;51.308;5.624;2022-08-26T00:35:31;21.30;99.90
7196;DHT22;3639;51.308;5.624;2022-08-26T00:37:57;21.20;99.90
7196;DHT22;3639;51.308;5.624;2022-08-26T00:40:28;21.20;99.90
7196;DHT22;3639;51.308;5.624;2022-08-26T00:42:54;21.10;99.90
7196;DHT22;3639;51.308;5.624;2022-08-26T00:45:20;21.10;99.90
7196;DHT22;3639;51.308;5.624;2022-08-26T00:47:51;21.10;99.90
7196;DHT22;3639;51.308;5.624;2022-08-26T00:50:31;21.10;99.90
7196;DHT22;3639;51.308;5.624;2022-08-26T00:52:59;21.10;99.90
7196;DHT22;3639;51.308;5.624;2022-08-26T00:55:34;21.00;99.90
7196;DHT22;3639;51.308;5.624;2022-08-26T00:58:01;21.00;99.90
7196;DHT22;3639;51.308;5.624;2022-08-26T01:00:29;21.00;99.90
7196;DHT22;3639;51.308;5.624;2022-08-26T01:02:57;21.00;99.90
7196;DHT22;3639;51.308;5.624;2022-08-26T01:05:23;21.00;99.90
7196;DHT22;3639;51.308;5.624;2022-08-26T01:07:50;21.00;99.90
7196;DHT22;3639;51.308;5.624;2022-08-26T01:10:20;21.00;99.90
7196;DHT22;3639;51.308;5.624;2022-08-26T01:13:02;21.00;99.90
7196;DHT22;3639;51.308;5.624;2022-08-26T01:15:32;21.00;99.90
7196;DHT22;3639;51.308;5.624;2022-08-26T01:17:59;21.00;99.90
7196;DHT22;3639;51.308;5.624;2022-08-26T01:20:49;21.00;99.90
7196;DHT22;3639;51.308;5.624;2022-08-26T01:23:15;21.00;99.90
7196;DHT22;3639;51.308;5.624;2022-08-26T01:25:46;21.00;99.90
7196;DHT22;3639;51.308;5.624;2022-08-26T01:28:17;21.00;99.90
7196;DHT22;3639;51.308;5.624;2022-08-26T01:30:47;21.00;99.90
7196;DHT22;3639;51.308;5.624;2022-08-26T01:33:16;21.00;99.90
7196;DHT22;3639;51.308;5.624;2022-08-26T01:35:44;20.90;99.90
7196;DHT22;3639;51.308;5.624;2022-08-26T01:38:10;20.90;99.90
7196;DHT22;3639;51.308;5.624;2022-08-26T01:40:37;20.90;99.90
7196;DHT22;3639;51.308;5.624;2022-08-26T01:43:05;20.80;99.90
7196;DHT22;3639;51.308;5.624;2022-08-26T01:45:34;20.80;99.90
7196;DHT22;3639;51.308;5.624;2022-08-26T01:48:02;20.80;99.90
7196;DHT22;3639;51.308;5.624;2022-08-26T01:50:32;20.90;99.90
7196;DHT22;3639;51.308;5.624;2022-08-26T01:53:02;20.90;99.90
7196;DHT22;3639;51.308;5.624;2022-08-26T01:55:30;20.90;99.90
7196;DHT22;3639;51.308;5.624;2022-08-26T01:57:59;20.90;99.90
7196;DHT22;3639;51.308;5.624;2022-08-26T02:00:26;20.90;99.90
7196;DHT22;3639;51.308;5.624;2022-08-26T02:02:54;21.00;99.90
7196;DHT22;3639;51.308;5.624;2022-08-26T02:05:41;21.00;99.90
7196;DHT22;3639;51.308;5.624;2022-08-26T02:08:07;21.00;99.90
7196;DHT22;3639;51.308;5.624;2022-08-26T02:10:32;21.00;99.90
7196;DHT22;3639;51.308;5.624;2022-08-26T02:12:58;21.10;99.90
7196;DHT22;3639;51.308;5.624;2022-08-26T02:15:24;21.10;99.90
7196;DHT22;3639;51.308;5.624;2022-08-26T02:17:50;21.10;99.90
7196;DHT22;3639;51.308;5.624;2022-08-26T02:20:17;21.10;99.90
7196;DHT22;3639;51.308;5.624;2022-08-26T02:22:43;21.10;99.90
7196;DHT22;3639;51.308;5.624;2022-08-26T02:25:48;21.10;99.90
7196;DHT22;3639;51.308;5.624;2022-08-26T02:28:16;21.10;99.90
7196;DHT22;3639;51.308;5.624;2022-08-26T02:30:43;21.10;99.90
7196;DHT22;3639;51.308;5.624;2022-08-26T02:33:09;21.10;99.90
7196;DHT22;3639;51.308;5.624;2022-08-26T02:35:36;21.10;99.90
7196;DHT22;3639;51.308;5.624;2022-08-26T02:38:04;21.10;99.90
7196;DHT22;3639;51.308;5.624;2022-08-26T02:40:33;21.10;99.90
7196;DHT22;3639;51.308;5.624;2022-08-26T02:42:59;21.10;99.90
7196;DHT22;3639;51.308;5.624;2022-08-26T02:45:26;21.20;99.90
7196;DHT22;3639;51.308;5.624;2022-08-26T02:47:53;21.20;99.90
7196;DHT22;3639;51.308;5.624;2022-08-26T02:50:20;21.20;99.90
7196;DHT22;3639;51.308;5.624;2022-08-26T02:52:47;21.20;99.90
7196;DHT22;3639;51.308;5.624;2022-08-26T02:55:13;21.10;99.90
7196;DHT22;3639;51.308;5.624;2022-08-26T02:57:39;21.10;99.90
7196;DHT22;3639;51.308;5.624;2022-08-26T03:00:07;21.10;99.90
7196;DHT22;3639;51.308;5.624;2022-08-26T03:02:34;21.10;99.90
7196;DHT22;3639;51.308;5.624;2022-08-26T03:04:59;21.10;99.90
7196;DHT22;3639;51.308;5.624;2022-08-26T03:07:25;21.10;99.90
7196;DHT22;3639;51.308;5.624;2022-08-26T03:09:50;21.10;99.90
7196;DHT22;3639;51.308;5.624;2022-08-26T03:12:17;21.10;99.90
7196;DHT22;3639;51.308;5.624;2022-08-26T03:14:46;21.10;99.90
7196;DHT22;3639;51.308;5.624;2022-08-26T03:17:12;21.10;99.90
7196;DHT22;3639;51.308;5.624;2022-08-26T03:19:37;21.10;99.90
7196;DHT22;3639;51.308;5.624;2022-08-26T03:22:03;21.10;99.90
7196;DHT22;3639;51.308;5.624;2022-08-26T03:24:29;21.10;99.90
7196;DHT22;3639;51.308;5.624;2022-08-26T03:26:55;21.10;99.90
7196;DHT22;3639;51.308;5.624;2022-08-26T03:29:21;21.20;99.90
7196;DHT22;3639;51.308;5.624;2022-08-26T03:32:06;21.10;99.90
7196;DHT22;3639;51.308;5.624;2022-08-26T03:34:32;21.20;99.90
7196;DHT22;3639;51.308;5.624;2022-08-26T03:36:57;21.10;99.90
7196;DHT22;3639;51.308;5.624;2022-08-26T03:39:23;21.10;99.90
7196;DHT22;3639;51.308;5.624;2022-08-26T03:41:49;21.10;99.90
7196;DHT22;3639;51.308;5.624;2022-08-26T03:44:16;21.00;99.90
7196;DHT22;3639;51.308;5.624;2022-08-26T03:46:41;21.00;99.90
7196;DHT22;3639;51.308;5.624;2022-08-26T03:49:07;21.00;99.90
7196;DHT22;3639;51.308;5.624;2022-08-26T03:51:34;21.00;99.90
7196;DHT22;3639;51.308;5.624;2022-08-26T03:54:01;21.00;99.90
7196;DHT22;3639;51.308;5.624;2022-08-26T03:56:28;20.90;99.90
7196;DHT22;3639;51.308;5.624;2022-08-26T03:58:54;20.90;99.90
7196;DHT22;3639;51.308;5.624;2022-08-26T04:01:20;20.90;99.90
7196;DHT22;3639;51.308;5.624;2022-08-26T04:03:46;20.90;99.90
7196;DHT22;3639;51.308;5.624;2022-08-26T04:06:41;20.90;99.90
7196;DHT22;3639;51.308;5.624;2022-08-26T04:09:13;20.80;99.90
7196;DHT22;3639;51.308;5.624;2022-08-26T04:11:39;20.90;99.90
7196;DHT22;3639;51.308;5.624;2022-08-26T04:14:12;20.80;99.90
7196;DHT22;3639;51.308;5.624;2022-08-26T04:16:39;20.80;99.90
7196;DHT22;3639;51.308;5.624;2022-08-26T04:19:06;20.70;99.90
7196;DHT22;3639;51.308;5.624;2022-08-26T04:21:32;20.70;99.90
7196;DHT22;3639;51.308;5.624;2022-08-26T04:23:57;20.70;99.90
7196;DHT22;3639;51.308;5.624;2022-08-26T04:26:23;20.70;99.90
7196;DHT22;3639;51.308;5.624;2022-08-26T04:28:51;20.70;99.90
7196;DHT22;3639;51.308;5.624;2022-08-26T04:31:17;20.60;99.90
7196;DHT22;3639;51.308;5.624;2022-08-26T04:33:45;20.60;99.90
7196;DHT22;3639;51.308;5.624;2022-08-26T04:36:12;20.70;99.90
7196;DHT22;3639;51.308;5.624;2022-08-26T04:38:37;20.70;99.90
7196;DHT22;3639;51.308;5.624;2022-08-26T04:41:05;20.80;99.90
7196;DHT22;3639;51.308;5.624;2022-08-26T04:43:31;20.70;99.90
7196;DHT22;3639;51.308;5.624;2022-08-26T04:45:58;20.70;99.90
7196;DHT22;3639;51.308;5.624;2022-08-26T04:48:27;20.70;99.90
7196;DHT22;3639;51.308;5.624;2022-08-26T04:50:53;20.70;99.90
7196;DHT22;3639;51.308;5.624;2022-08-26T04:53:18;20.70;99.90
7196;DHT22;3639;51.308;5.624;2022-08-26T04:55:44;20.70;99.90
7196;DHT22;3639;51.308;5.624;2022-08-26T04:58:13;20.80;99.90
7196;DHT22;3639;51.308;5.624;2022-08-26T05:00:39;20.80;99.90
7196;DHT22;3639;51.308;5.624;2022-08-26T05:03:05;20.80;99.90
7196;DHT22;3639;51.308;5.624;2022-08-26T05:05:30;20.80;99.90
7196;DHT22;3639;51.308;5.624;2022-08-26T05:07:56;20.80;99.90
7196;DHT22;3639;51.308;5.624;2022-08-26T05:10:22;20.80;99.90
7196;DHT22;3639;51.308;5.624;2022-08-26T05:12:48;20.80;99.90
7196;DHT22;3639;51.308;5.624;2022-08-26T05:15:14;20.80;99.90
7196;DHT22;3639;51.308;5.624;2022-08-26T05:17:39;20.80;99.90
7196;DHT22;3639;51.308;5.624;2022-08-26T05:20:05;20.80;99.90
7196;DHT22;3639;51.308;5.624;2022-08-26T05:22:31;20.80;99.90
7196;DHT22;3639;51.308;5.624;2022-08-26T05:24:56;20.80;99.90
7196;DHT22;3639;51.308;5.624;2022-08-26T05:27:22;20.80;99.90
7196;DHT22;3639;51.308;5.624;2022-08-26T05:29:48;20.90;99.90
7196;DHT22;3639;51.308;5.624;2022-08-26T05:32:13;20.90;99.90
7196;DHT22;3639;51.308;5.624;2022-08-26T05:34:39;20.90;99.90
7196;DHT22;3639;51.308;5.624;2022-08-26T05:37:05;20.80;99.90
7196;DHT22;3639;51.308;5.624;2022-08-26T05:39:32;20.80;99.90
7196;DHT22;3639;51.308;5.624;2022-08-26T05:41:58;20.90;99.90
7196;DHT22;3639;51.308;5.624;2022-08-26T05:44:23;20.90;99.90
7196;DHT22;3639;51.308;5.624;2022-08-26T05:46:50;20.90;99.90
7196;DHT22;3639;51.308;5.624;2022-08-26T05:49:16;20.90;99.90
7196;DHT22;3639;51.308;5.624;2022-08-26T05:51:43;20.90;99.90
7196;DHT22;3639;51.308;5.624;2022-08-26T05:54:11;20.90;99.90
7196;DHT22;3639;51.308;5.624;2022-08-26T05:56:37;20.90;99.90
7196;DHT22;3639;51.308;5.624;2022-08-26T05:59:03;20.90;99.90
7196;DHT22;3639;51.308;5.624;2022-08-26T06:01:29;20.90;99.90
7196;DHT22;3639;51.308;5.624;2022-08-26T06:03:57;20.90;99.90
7196;DHT22;3639;51.308;5.624;2022-08-26T06:06:26;21.00;99.90
7196;DHT22;3639;51.308;5.624;2022-08-26T06:08:52;20.90;99.90
7196;DHT22;3639;51.308;5.624;2022-08-26T06:11:21;20.90;99.90
7196;DHT22;3639;51.308;5.624;2022-08-26T06:13:51;20.90;99.90
7196;DHT22;3639;51.308;5.624;2022-08-26T06:16:19;20.90;99.90
7196;DHT22;3639;51.308;5.624;2022-08-26T06:18:46;20.90;99.90
7196;DHT22;3639;51.308;5.624;2022-08-26T06:23:49;21.00;99.90
7196;DHT22;3639;51.308;5.624;2022-08-26T06:26:34;21.00;99.90
7196;DHT22;3639;51.308;5.624;2022-08-26T06:29:01;21.10;99.90
7196;DHT22;3639;51.308;5.624;2022-08-26T06:31:28;21.00;99.90
7196;DHT22;3639;51.308;5.624;2022-08-26T06:33:54;21.00;99.90
7196;DHT22;3639;51.308;5.624;2022-08-26T06:36:25;21.00;99.90
7196;DHT22;3639;51.308;5.624;2022-08-26T06:38:52;21.10;99.90
7196;DHT22;3639;51.308;5.624;2022-08-26T06:41:20;21.10;99.90
7196;DHT22;3639;51.308;5.624;2022-08-26T06:43:46;21.00;99.90
7196;DHT22;3639;51.308;5.624;2022-08-26T06:46:13;21.00;99.90
7196;DHT22;3639;51.308;5.624;2022-08-26T06:48:42;21.00;99.90
7196;DHT22;3639;51.308;5.624;2022-08-26T06:51:20;21.00;99.90
7196;DHT22;3639;51.308;5.624;2022-08-26T06:53:47;20.90;99.90
7196;DHT22;3639;51.308;5.624;2022-08-26T06:56:16;20.90;99.90
7196;DHT22;3639;51.308;5.624;2022-08-26T06:58:42;20.90;99.90
7196;DHT22;3639;51.308;5.624;2022-08-26T07:01:19;21.00;99.90
7196;DHT22;3639;51.308;5.624;2022-08-26T07:03:46;20.90;99.90
7196;DHT22;3639;51.308;5.624;2022-08-26T07:06:12;21.00;99.90
7196;DHT22;3639;51.308;5.624;2022-08-26T07:08:38;21.00;99.90
7196;DHT22;3639;51.308;5.624;2022-08-26T07:11:08;21.10;99.90
7196;DHT22;3639;51.308;5.624;2022-08-26T07:13:34;21.10;99.90
7196;DHT22;3639;51.308;5.624;2022-08-26T07:16:06;21.10;99.90
7196;DHT22;3639;51.308;5.624;2022-08-26T07:18:34;21.20;99.90
7196;DHT22;3639;51.308;5.624;2022-08-26T07:21:02;21.30;99.90
7196;DHT22;3639;51.308;5.624;2022-08-26T07:23:28;21.40;99.90
7196;DHT22;3639;51.308;5.624;2022-08-26T07:25:54;21.50;99.90
7196;DHT22;3639;51.308;5.624;2022-08-26T07:28:19;21.50;99.90
7196;DHT22;3639;51.308;5.624;2022-08-26T07:30:45;21.50;99.90
7196;DHT22;3639;51.308;5.624;2022-08-26T07:33:11;21.60;99.90
7196;DHT22;3639;51.308;5.624;2022-08-26T07:35:37;21.70;99.90
7196;DHT22;3639;51.308;5.624;2022-08-26T07:38:02;21.70;99.90
7196;DHT22;3639;51.308;5.624;2022-08-26T07:40:29;21.80;99.90
7196;DHT22;3639;51.308;5.624;2022-08-26T07:42:55;21.80;99.90
7196;DHT22;3639;51.308;5.624;2022-08-26T07:45:20;21.80;99.90
7196;DHT22;3639;51.308;5.624;2022-08-26T07:47:46;21.80;99.90
7196;DHT22;3639;51.308;5.624;2022-08-26T07:50:12;21.90;99.90
7196;DHT22;3639;51.308;5.624;2022-08-26T07:52:38;21.90;99.90
7196;DHT22;3639;51.308;5.624;2022-08-26T07:55:05;21.90;99.90
7196;DHT22;3639;51.308;5.624;2022-08-26T07:57:32;22.00;99.90
7196;DHT22;3639;51.308;5.624;2022-08-26T07:59:59;22.00;99.90
7196;DHT22;3639;51.308;5.624;2022-08-26T08:02:26;22.20;99.90
7196;DHT22;3639;51.308;5.624;2022-08-26T08:04:52;22.20;99.90
7196;DHT22;3639;51.308;5.624;2022-08-26T08:07:19;22.20;99.90
7196;DHT22;3639;51.308;5.624;2022-08-26T08:09:45;22.30;99.90
7196;DHT22;3639;51.308;5.624;2022-08-26T08:12:14;22.20;99.90
7196;DHT22;3639;51.308;5.624;2022-08-26T08:14:40;22.30;99.90
7196;DHT22;3639;51.308;5.624;2022-08-26T08:17:10;22.20;99.90
7196;DHT22;3639;51.308;5.624;2022-08-26T08:19:35;22.30;99.90
7196;DHT22;3639;51.308;5.624;2022-08-26T08:22:01;22.40;99.90
7196;DHT22;3639;51.308;5.624;2022-08-26T08:24:30;22.50;99.90
7196;DHT22;3639;51.308;5.624;2022-08-26T08:26:56;22.50;99.90
7196;DHT22;3639;51.308;5.624;2022-08-26T08:29:23;22.50;99.90
7196;DHT22;3639;51.308;5.624;2022-08-26T08:31:49;22.30;99.90
7196;DHT22;3639;51.308;5.624;2022-08-26T08:34:16;22.30;99.90
7196;DHT22;3639;51.308;5.624;2022-08-26T08:36:42;22.20;99.90
7196;DHT22;3639;51.308;5.624;2022-08-26T08:39:08;22.20;99.90
7196;DHT22;3639;51.308;5.624;2022-08-26T08:44:23;22.00;99.90
7196;DHT22;3639;51.308;5.624;2022-08-26T08:46:59;22.20;99.90
7196;DHT22;3639;51.308;5.624;2022-08-26T08:49:26;22.10;99.90
7196;DHT22;3639;51.308;5.624;2022-08-26T08:52:01;22.20;99.90
7196;DHT22;3639;51.308;5.624;2022-08-26T08:54:30;22.30;99.90
7196;DHT22;3639;51.308;5.624;2022-08-26T08:57:01;22.40;99.90
7196;DHT22;3639;51.308;5.624;2022-08-26T08:59:33;22.50;99.90
7196;DHT22;3639;51.308;5.624;2022-08-26T09:05:07;22.40;99.90
7196;DHT22;3639;51.308;5.624;2022-08-26T09:07:41;22.40;99.90
7196;DHT22;3639;51.308;5.624;2022-08-26T09:10:23;22.50;99.90
7196;DHT22;3639;51.308;5.624;2022-08-26T09:12:51;22.60;99.90
7196;DHT22;3639;51.308;5.624;2022-08-26T09:15:28;22.60;99.90
7196;DHT22;3639;51.308;5.624;2022-08-26T09:18:20;22.70;99.90
7196;DHT22;3639;51.308;5.624;2022-08-26T09:20:55;22.70;99.90
7196;DHT22;3639;51.308;5.624;2022-08-26T09:23:22;22.70;99.90
7196;DHT22;3639;51.308;5.624;2022-08-26T09:25:55;22.80;99.90
7196;DHT22;3639;51.308;5.624;2022-08-26T09:28:25;22.80;99.90
7196;DHT22;3639;51.308;5.624;2022-08-26T09:36:45;22.70;99.90
7196;DHT22;3639;51.308;5.624;2022-08-26T09:42:05;22.70;99.90
7196;DHT22;3639;51.308;5.624;2022-08-26T09:44:32;22.70;99.90
7196;DHT22;3639;51.308;5.624;2022-08-26T09:47:03;22.70;99.90
7196;DHT22;3639;51.308;5.624;2022-08-26T09:49:37;22.80;99.90
7196;DHT22;3639;51.308;5.624;2022-08-26T09:52:22;22.90;99.90
7196;DHT22;3639;51.308;5.624;2022-08-26T09:55:04;22.90;99.90
7196;DHT22;3639;51.308;5.624;2022-08-26T09:57:35;23.00;99.90
7196;DHT22;3639;51.308;5.624;2022-08-26T10:00:30;22.90;99.90
7196;DHT22;3639;51.308;5.624;2022-08-26T10:02:58;22.80;99.90
7196;DHT22;3639;51.308;5.624;2022-08-26T10:05:42;22.90;99.90
7196;DHT22;3639;51.308;5.624;2022-08-26T10:08:23;22.90;99.90
7196;DHT22;3639;51.308;5.624;2022-08-26T10:10:50;22.90;99.90
7196;DHT22;3639;51.308;5.624;2022-08-26T10:13:31;23.00;99.90
7196;DHT22;3639;51.308;5.624;2022-08-26T10:19:09;23.30;99.90
7196;DHT22;3639;51.308;5.624;2022-08-26T10:21:37;23.50;99.90
7196;DHT22;3639;51.308;5.624;2022-08-26T10:24:05;23.60;99.90
7196;DHT22;3639;51.308;5.624;2022-08-26T10:27:05;23.50;99.90
7196;DHT22;3639;51.308;5.624;2022-08-26T10:29:43;23.50;99.90
7196;DHT22;3639;51.308;5.624;2022-08-26T10:32:17;23.60;99.90
7196;DHT22;3639;51.308;5.624;2022-08-26T10:34:44;23.60;99.90
7196;DHT22;3639;51.308;5.624;2022-08-26T10:37:14;23.50;99.90
7196;DHT22;3639;51.308;5.624;2022-08-26T10:39:54;23.50;99.90
7196;DHT22;3639;51.308;5.624;2022-08-26T10:42:26;23.60;99.90
7196;DHT22;3639;51.308;5.624;2022-08-26T10:44:57;23.60;99.90
7196;DHT22;3639;51.308;5.624;2022-08-26T10:50:12;23.70;99.90
7196;DHT22;3639;51.308;5.624;2022-08-26T10:55:44;23.60;99.90
7196;DHT22;3639;51.308;5.624;2022-08-26T11:00:48;23.50;99.90
7196;DHT22;3639;51.308;5.624;2022-08-26T11:06:24;23.30;99.90
7196;DHT22;3639;51.308;5.624;2022-08-26T11:08:53;23.30;99.90
7196;DHT22;3639;51.308;5.624;2022-08-26T11:14:10;23.30;99.90
7196;DHT22;3639;51.308;5.624;2022-08-26T11:16:40;23.30;99.90
7196;DHT22;3639;51.308;5.624;2022-08-26T11:19:08;23.30;99.90
7196;DHT22;3639;51.308;5.624;2022-08-26T11:27:03;23.20;99.90
7196;DHT22;3639;51.308;5.624;2022-08-26T11:37:55;23.30;99.90
7196;DHT22;3639;51.308;5.624;2022-08-26T11:40:39;23.30;99.90
7196;DHT22;3639;51.308;5.624;2022-08-26T11:43:21;23.20;99.90
7196;DHT22;3639;51.308;5.624;2022-08-26T11:46:02;23.00;99.90
7196;DHT22;3639;51.308;5.624;2022-08-26T11:48:35;22.90;99.90
7196;DHT22;3639;51.308;5.624;2022-08-26T11:51:21;22.90;99.90
7196;DHT22;3639;51.308;5.624;2022-08-26T11:53:48;22.80;99.90
7196;DHT22;3639;51.308;5.624;2022-08-26T11:56:32;22.60;99.90
7196;DHT22;3639;51.308;5.624;2022-08-26T11:59:00;22.30;99.90
7196;DHT22;3639;51.308;5.624;2022-08-26T12:01:32;22.00;99.90
7196;DHT22;3639;51.308;5.624;2022-08-26T12:04:02;21.80;99.90
7196;DHT22;3639;51.308;5.624;2022-08-26T12:06:34;21.50;99.90
7196;DHT22;3639;51.308;5.624;2022-08-26T12:09:02;21.30;99.90
7196;DHT22;3639;51.308;5.624;2022-08-26T12:11:34;21.10;99.90
7196;DHT22;3639;51.308;5.624;2022-08-26T12:14:21;20.90;99.90
7196;DHT22;3639;51.308;5.624;2022-08-26T12:17:25;20.80;99.90
7196;DHT22;3639;51.308;5.624;2022-08-26T12:19:51;20.70;99.90
7196;DHT22;3639;51.308;5.624;2022-08-26T12:22:31;20.60;99.90
7196;DHT22;3639;51.308;5.624;2022-08-26T12:25:05;20.60;99.90
7196;DHT22;3639;51.308;5.624;2022-08-26T12:27:40;20.50;99.90
7196;DHT22;3639;51.308;5.624;2022-08-26T12:32:43;20.40;99.90
7196;DHT22;3639;51.308;5.624;2022-08-26T12:35:13;20.40;99.90
7196;DHT22;3639;51.308;5.624;2022-08-26T12:37:45;20.40;99.90
7196;DHT22;3639;51.308;5.624;2022-08-26T12:42:50;20.40;99.90
7196;DHT22;3639;51.308;5.624;2022-08-26T12:45:35;20.40;99.90
7196;DHT22;3639;51.308;5.624;2022-08-26T12:48:10;20.30;99.90
7196;DHT22;3639;51.308;5.624;2022-08-26T12:50:45;20.20;99.90
7196;DHT22;3639;51.308;5.624;2022-08-26T13:00:48;20.10;99.90
7196;DHT22;3639;51.308;5.624;2022-08-26T13:09:09;20.10;99.90
7196;DHT22;3639;51.308;5.624;2022-08-26T13:14:17;20.00;99.90
7196;DHT22;3639;51.308;5.624;2022-08-26T13:16:44;20.00;99.90
7196;DHT22;3639;51.308;5.624;2022-08-26T13:19:22;20.00;99.90
7196;DHT22;3639;51.308;5.624;2022-08-26T13:21:55;20.00;99.90
7196;DHT22;3639;51.308;5.624;2022-08-26T13:24:27;20.00;99.90
7196;DHT22;3639;51.308;5.624;2022-08-26T13:26:54;20.00;99.90
7196;DHT22;3639;51.308;5.624;2022-08-26T13:29:20;20.00;99.90
7196;DHT22;3639;51.308;5.624;2022-08-26T13:31:47;20.10;99.90
7196;DHT22;3639;51.308;5.624;2022-08-26T13:34:16;20.10;99.90
7196;DHT22;3639;51.308;5.624;2022-08-26T13:36:46;20.20;99.90
7196;DHT22;3639;51.308;5.624;2022-08-26T13:39:12;20.20;99.90
7196;DHT22;3639;51.308;5.624;2022-08-26T13:41:38;20.10;99.90
7196;DHT22;3639;51.308;5.624;2022-08-26T13:44:04;20.20;99.90
7196;DHT22;3639;51.308;5.624;2022-08-26T13:46:30;20.20;99.90
7196;DHT22;3639;51.308;5.624;2022-08-26T13:48:56;20.30;99.90
7196;DHT22;3639;51.308;5.624;2022-08-26T13:51:23;20.30;99.90
7196;DHT22;3639;51.308;5.624;2022-08-26T13:53:49;20.30;99.90
7196;DHT22;3639;51.308;5.624;2022-08-26T13:56:15;20.20;99.90
7196;DHT22;3639;51.308;5.624;2022-08-26T13:58:41;20.30;99.90
7196;DHT22;3639;51.308;5.624;2022-08-26T14:01:07;20.30;99.90
7196;DHT22;3639;51.308;5.624;2022-08-26T14:03:33;20.40;99.90
7196;DHT22;3639;51.308;5.624;2022-08-26T14:05:59;20.50;99.90
7196;DHT22;3639;51.308;5.624;2022-08-26T14:08:25;20.60;99.90
7196;DHT22;3639;51.308;5.624;2022-08-26T14:10:50;20.60;99.90
7196;DHT22;3639;51.308;5.624;2022-08-26T14:13:16;20.70;99.90
7196;DHT22;3639;51.308;5.624;2022-08-26T14:15:42;20.80;99.90
7196;DHT22;3639;51.308;5.624;2022-08-26T14:18:09;20.90;99.90
7196;DHT22;3639;51.308;5.624;2022-08-26T14:20:37;21.00;99.90
7196;DHT22;3639;51.308;5.624;2022-08-26T14:23:03;21.10;99.90
7196;DHT22;3639;51.308;5.624;2022-08-26T14:25:29;21.20;99.90
7196;DHT22;3639;51.308;5.624;2022-08-26T14:27:55;21.20;99.90
7196;DHT22;3639;51.308;5.624;2022-08-26T14:30:24;21.30;99.90
7196;DHT22;3639;51.308;5.624;2022-08-26T14:32:52;21.30;99.90
7196;DHT22;3639;51.308;5.624;2022-08-26T14:35:22;21.40;99.90
7196;DHT22;3639;51.308;5.624;2022-08-26T14:37:48;21.50;99.90
7196;DHT22;3639;51.308;5.624;2022-08-26T14:40:14;21.60;99.90
7196;DHT22;3639;51.308;5.624;2022-08-26T14:42:44;21.70;99.90
7196;DHT22;3639;51.308;5.624;2022-08-26T14:45:13;21.80;99.90
7196;DHT22;3639;51.308;5.624;2022-08-26T14:47:46;21.90;99.90
7196;DHT22;3639;51.308;5.624;2022-08-26T14:50:14;22.00;99.90
7196;DHT22;3639;51.308;5.624;2022-08-26T14:52:41;22.00;99.90
7196;DHT22;3639;51.308;5.624;2022-08-26T14:55:26;22.10;99.90
7196;DHT22;3639;51.308;5.624;2022-08-26T14:57:52;22.20;99.90
7196;DHT22;3639;51.308;5.624;2022-08-26T15:00:18;22.20;99.90
7196;DHT22;3639;51.308;5.624;2022-08-26T15:02:44;22.20;99.90
7196;DHT22;3639;51.308;5.624;2022-08-26T15:05:10;22.30;99.90
7196;DHT22;3639;51.308;5.624;2022-08-26T15:07:37;22.20;99.90
7196;DHT22;3639;51.308;5.624;2022-08-26T15:10:09;22.20;99.90
7196;DHT22;3639;51.308;5.624;2022-08-26T15:12:36;22.10;99.90
7196;DHT22;3639;51.308;5.624;2022-08-26T15:15:04;22.20;99.90
7196;DHT22;3639;51.308;5.624;2022-08-26T15:17:30;22.10;99.90
7196;DHT22;3639;51.308;5.624;2022-08-26T15:19:56;22.20;99.90
7196;DHT22;3639;51.308;5.624;2022-08-26T15:22:22;22.30;99.90
7196;DHT22;3639;51.308;5.624;2022-08-26T15:24:48;22.20;99.90
7196;DHT22;3639;51.308;5.624;2022-08-26T15:27:13;22.10;99.90
7196;DHT22;3639;51.308;5.624;2022-08-26T15:29:39;22.20;99.90
7196;DHT22;3639;51.308;5.624;2022-08-26T15:32:05;22.20;99.90
7196;DHT22;3639;51.308;5.624;2022-08-26T15:34:30;22.20;99.90
7196;DHT22;3639;51.308;5.624;2022-08-26T15:36:56;22.20;99.90
7196;DHT22;3639;51.308;5.624;2022-08-26T15:39:22;22.30;99.90
7196;DHT22;3639;51.308;5.624;2022-08-26T15:41:48;22.10;99.90
7196;DHT22;3639;51.308;5.624;2022-08-26T15:44:14;22.00;99.90
7196;DHT22;3639;51.308;5.624;2022-08-26T15:46:41;21.90;99.90
7196;DHT22;3639;51.308;5.624;2022-08-26T15:49:07;21.80;99.90
7196;DHT22;3639;51.308;5.624;2022-08-26T15:51:35;21.70;99.90
7196;DHT22;3639;51.308;5.624;2022-08-26T15:54:02;21.70;99.90
7196;DHT22;3639;51.308;5.624;2022-08-26T15:56:33;21.70;99.90
7196;DHT22;3639;51.308;5.624;2022-08-26T15:58:59;21.70;99.90
7196;DHT22;3639;51.308;5.624;2022-08-26T16:01:26;21.60;99.90
7196;DHT22;3639;51.308;5.624;2022-08-26T16:03:53;21.70;99.90
7196;DHT22;3639;51.308;5.624;2022-08-26T16:06:21;21.60;99.90
7196;DHT22;3639;51.308;5.624;2022-08-26T16:08:47;21.60;99.90
7196;DHT22;3639;51.308;5.624;2022-08-26T16:11:15;21.60;99.90
7196;DHT22;3639;51.308;5.624;2022-08-26T16:13:43;21.70;99.90
7196;DHT22;3639;51.308;5.624;2022-08-26T16:16:09;21.70;99.90
7196;DHT22;3639;51.308;5.624;2022-08-26T16:18:35;21.80;99.90
7196;DHT22;3639;51.308;5.624;2022-08-26T16:21:01;21.80;99.90
7196;DHT22;3639;51.308;5.624;2022-08-26T16:23:27;21.90;99.90
7196;DHT22;3639;51.308;5.624;2022-08-26T16:25:52;21.80;99.90
7196;DHT22;3639;51.308;5.624;2022-08-26T16:28:18;21.80;99.90
7196;DHT22;3639;51.308;5.624;2022-08-26T16:30:44;21.80;99.90
7196;DHT22;3639;51.308;5.624;2022-08-26T16:33:14;21.80;99.90
7196;DHT22;3639;51.308;5.624;2022-08-26T16:35:41;21.70;99.90
7196;DHT22;3639;51.308;5.624;2022-08-26T16:38:07;21.70;99.90
7196;DHT22;3639;51.308;5.624;2022-08-26T16:40:34;21.60;99.90
7196;DHT22;3639;51.308;5.624;2022-08-26T16:43:01;21.60;99.90
7196;DHT22;3639;51.308;5.624;2022-08-26T16:45:27;21.60;99.90
7196;DHT22;3639;51.308;5.624;2022-08-26T16:47:53;21.60;99.90
7196;DHT22;3639;51.308;5.624;2022-08-26T16:50:20;21.60;99.90
7196;DHT22;3639;51.308;5.624;2022-08-26T16:52:50;21.60;99.90
7196;DHT22;3639;51.308;5.624;2022-08-26T16:55:16;21.60;99.90
7196;DHT22;3639;51.308;5.624;2022-08-26T16:57:43;21.60;99.90
7196;DHT22;3639;51.308;5.624;2022-08-26T17:00:15;21.50;99.90
7196;DHT22;3639;51.308;5.624;2022-08-26T17:02:41;21.50;99.90
7196;DHT22;3639;51.308;5.624;2022-08-26T17:05:08;21.50;99.90
7196;DHT22;3639;51.308;5.624;2022-08-26T17:07:34;21.50;99.90
7196;DHT22;3639;51.308;5.624;2022-08-26T17:10:04;21.40;99.90
7196;DHT22;3639;51.308;5.624;2022-08-26T17:12:32;21.40;99.90
7196;DHT22;3639;51.308;5.624;2022-08-26T17:14:58;21.40;99.90
7196;DHT22;3639;51.308;5.624;2022-08-26T17:17:24;21.40;99.90
7196;DHT22;3639;51.308;5.624;2022-08-26T17:19:49;21.30;99.90
7196;DHT22;3639;51.308;5.624;2022-08-26T17:22:15;21.30;99.90
7196;DHT22;3639;51.308;5.624;2022-08-26T17:24:41;21.30;99.90
7196;DHT22;3639;51.308;5.624;2022-08-26T17:27:08;21.30;99.90
7196;DHT22;3639;51.308;5.624;2022-08-26T17:29:34;21.30;99.90
7196;DHT22;3639;51.308;5.624;2022-08-26T17:32:00;21.30;99.90